Aeroporto :
LOGIN :

Iscrizione | Disclaimer

   EN    FR    IT 

 










Sommario :    VFR   VFR Marginale   IFR   IFR Intensivo   IFR Molto Intensivo
Visibilità : 
Base nubi : 
>= 8 km
>= 3000ft
5 / 8 km
1000 / 3000 ft
1500m / 5 km
500 / 1000 ft
800 / 1500m
200 / 500 ft
< 800m
< 200 ft
Simboli :   Temporali  Nebbia  Neve Forte  Precipitazioni Forti  Vento > 20 kt
SIGMETs :   Varie  Temporali  Ghiacco  Turbolenza  Onda orograficha  Ceneri Vulcaniche






- Altitudine del aeroporto : 605 ft
- Codice IATA : BAY


LRBM - Tautii Magheraus

ULTIMO METAR :
  • 161200Z AUTO VRB03KT 9999 NCD 37/18 Q1013

METARs OBSOLETI :
  • 161130Z AUTO 11004KT 050V150 9999 FEW180/// 36/18 Q1013
  • 161100Z AUTO 12005KT 090V160 9999 FEW190/// 36/18 Q1013
  • 161030Z AUTO 13005KT 9999 NCD 36/18 Q1013
  • 161000Z AUTO 14006KT 110V170 9999 NCD 35/18 Q1014
  • 160930Z AUTO 12007KT 090V150 9999 NCD 35/18 Q1014
  • 160900Z AUTO 11009KT 9999 NCD 34/17 Q1014
  • 160830Z AUTO 12006KT 080V150 9999 NCD 34/16 Q1014
  • 160800Z AUTO 13006KT 100V160 9999 NCD 33/16 Q1014
  • 160730Z AUTO 11004KT 090V170 9999 NCD 32/18 Q1014

Previsioni scadute.



MetMap, La meteo Aeronautica in un colpo d'occhio ! - Copyright ORBIFLY Dicembre 2007 - Disclaimer

ORBIFLY MET'MAP TEAM :

Programmazione e sviluppo : Alexandra Zaïnal
Concezione : Baudouin d'Aumeries
Supporto tecnico e logistico : Manuel Goepfert
Aiuto : Marc-Olivier Méhu
Aiuto per la traduzione : Arnaldo La Scala




FONTI E CREDITI :

   NOAA